sensor_id;sensor_type;location;lat;lon;timestamp;P1;durP1;ratioP1;P2;durP2;ratioP2
74922;SDS011;64715;44.760;37.678;2023-02-08T00:00:09;16.98;;;4.50;;
74922;SDS011;64715;44.760;37.678;2023-02-08T00:01:11;11.43;;;4.60;;
74922;SDS011;64715;44.760;37.678;2023-02-08T00:02:14;10.75;;;3.70;;
74922;SDS011;64715;44.760;37.678;2023-02-08T00:03:15;11.52;;;4.50;;
74922;SDS011;64715;44.760;37.678;2023-02-08T00:04:16;10.50;;;3.55;;
74922;SDS011;64715;44.760;37.678;2023-02-08T00:05:17;9.80;;;3.42;;
74922;SDS011;64715;44.760;37.678;2023-02-08T00:06:18;10.45;;;4.30;;
74922;SDS011;64715;44.760;37.678;2023-02-08T00:07:20;10.63;;;3.57;;
74922;SDS011;64715;44.760;37.678;2023-02-08T00:08:21;11.70;;;4.32;;
74922;SDS011;64715;44.760;37.678;2023-02-08T00:09:23;9.52;;;3.58;;
74922;SDS011;64715;44.760;37.678;2023-02-08T00:10:24;11.27;;;4.20;;
74922;SDS011;64715;44.760;37.678;2023-02-08T00:11:25;13.40;;;4.45;;
74922;SDS011;64715;44.760;37.678;2023-02-08T00:12:26;11.38;;;4.47;;
74922;SDS011;64715;44.760;37.678;2023-02-08T00:13:27;11.20;;;3.70;;
74922;SDS011;64715;44.760;37.678;2023-02-08T00:14:28;12.30;;;4.50;;
74922;SDS011;64715;44.760;37.678;2023-02-08T00:15:29;11.95;;;4.28;;
74922;SDS011;64715;44.760;37.678;2023-02-08T00:16:30;9.95;;;3.50;;
74922;SDS011;64715;44.760;37.678;2023-02-08T00:17:31;17.95;;;5.38;;
74922;SDS011;64715;44.760;37.678;2023-02-08T00:18:33;10.73;;;3.80;;
74922;SDS011;64715;44.760;37.678;2023-02-08T00:19:33;11.05;;;4.20;;
74922;SDS011;64715;44.760;37.678;2023-02-08T00:20:36;11.90;;;3.40;;
74922;SDS011;64715;44.760;37.678;2023-02-08T00:21:39;19.90;;;3.92;;
74922;SDS011;64715;44.760;37.678;2023-02-08T00:22:40;12.00;;;3.40;;
74922;SDS011;64715;44.760;37.678;2023-02-08T00:23:41;12.88;;;3.97;;
74922;SDS011;64715;44.760;37.678;2023-02-08T00:24:43;12.13;;;4.45;;
74922;SDS011;64715;44.760;37.678;2023-02-08T00:25:44;18.13;;;3.92;;
74922;SDS011;64715;44.760;37.678;2023-02-08T00:26:45;11.35;;;4.28;;
74922;SDS011;64715;44.760;37.678;2023-02-08T00:27:47;13.85;;;3.83;;
74922;SDS011;64715;44.760;37.678;2023-02-08T00:28:48;9.82;;;3.50;;
74922;SDS011;64715;44.760;37.678;2023-02-08T00:29:51;12.05;;;2.60;;
74922;SDS011;64715;44.760;37.678;2023-02-08T00:30:52;11.73;;;3.45;;
74922;SDS011;64715;44.760;37.678;2023-02-08T00:31:53;11.05;;;3.85;;
74922;SDS011;64715;44.760;37.678;2023-02-08T00:32:54;9.27;;;3.10;;
74922;SDS011;64715;44.760;37.678;2023-02-08T00:33:55;9.52;;;2.92;;
74922;SDS011;64715;44.760;37.678;2023-02-08T00:34:56;11.32;;;4.53;;
74922;SDS011;64715;44.760;37.678;2023-02-08T00:36:00;8.82;;;3.03;;
74922;SDS011;64715;44.760;37.678;2023-02-08T00:37:03;10.50;;;3.65;;
74922;SDS011;64715;44.760;37.678;2023-02-08T00:38:05;10.38;;;3.53;;
74922;SDS011;64715;44.760;37.678;2023-02-08T00:39:06;8.45;;;3.03;;
74922;SDS011;64715;44.760;37.678;2023-02-08T00:40:07;14.98;;;4.43;;
74922;SDS011;64715;44.760;37.678;2023-02-08T00:41:09;11.43;;;3.67;;
74922;SDS011;64715;44.760;37.678;2023-02-08T00:42:10;10.32;;;3.88;;
74922;SDS011;64715;44.760;37.678;2023-02-08T00:43:12;10.55;;;3.53;;
74922;SDS011;64715;44.760;37.678;2023-02-08T00:44:13;12.85;;;3.30;;
74922;SDS011;64715;44.760;37.678;2023-02-08T00:45:14;9.82;;;3.47;;
74922;SDS011;64715;44.760;37.678;2023-02-08T00:46:15;12.18;;;3.30;;
74922;SDS011;64715;44.760;37.678;2023-02-08T00:47:16;12.57;;;3.15;;
74922;SDS011;64715;44.760;37.678;2023-02-08T00:48:17;18.05;;;4.20;;
74922;SDS011;64715;44.760;37.678;2023-02-08T00:49:18;10.88;;;3.45;;
74922;SDS011;64715;44.760;37.678;2023-02-08T00:50:19;12.25;;;3.75;;
74922;SDS011;64715;44.760;37.678;2023-02-08T00:51:20;10.30;;;4.28;;
74922;SDS011;64715;44.760;37.678;2023-02-08T00:52:23;10.15;;;3.00;;
74922;SDS011;64715;44.760;37.678;2023-02-08T00:53:24;12.73;;;3.47;;
74922;SDS011;64715;44.760;37.678;2023-02-08T00:54:25;10.65;;;3.35;;
74922;SDS011;64715;44.760;37.678;2023-02-08T00:55:26;14.82;;;4.60;;
74922;SDS011;64715;44.760;37.678;2023-02-08T00:56:27;12.75;;;4.18;;
74922;SDS011;64715;44.760;37.678;2023-02-08T00:57:28;11.23;;;3.80;;
74922;SDS011;64715;44.760;37.678;2023-02-08T01:00:34;12.05;;;4.35;;
74922;SDS011;64715;44.760;37.678;2023-02-08T01:01:39;8.82;;;3.60;;
74922;SDS011;64715;44.760;37.678;2023-02-08T01:02:42;12.03;;;4.20;;
74922;SDS011;64715;44.760;37.678;2023-02-08T01:03:44;12.85;;;3.83;;
74922;SDS011;64715;44.760;37.678;2023-02-08T01:04:47;12.40;;;3.90;;
74922;SDS011;64715;44.760;37.678;2023-02-08T01:05:48;9.88;;;3.83;;
74922;SDS011;64715;44.760;37.678;2023-02-08T01:06:49;14.52;;;4.85;;
74922;SDS011;64715;44.760;37.678;2023-02-08T01:07:50;11.00;;;4.25;;
74922;SDS011;64715;44.760;37.678;2023-02-08T01:08:51;11.80;;;4.60;;
74922;SDS011;64715;44.760;37.678;2023-02-08T01:09:52;17.35;;;4.25;;
74922;SDS011;64715;44.760;37.678;2023-02-08T01:11:00;12.90;;;3.65;;
74922;SDS011;64715;44.760;37.678;2023-02-08T01:12:09;12.40;;;3.80;;
74922;SDS011;64715;44.760;37.678;2023-02-08T01:13:13;13.70;;;5.25;;
74922;SDS011;64715;44.760;37.678;2023-02-08T01:14:14;10.43;;;3.92;;
74922;SDS011;64715;44.760;37.678;2023-02-08T01:15:15;11.85;;;3.85;;
74922;SDS011;64715;44.760;37.678;2023-02-08T01:16:17;17.38;;;4.45;;
74922;SDS011;64715;44.760;37.678;2023-02-08T01:17:20;11.85;;;3.50;;
74922;SDS011;64715;44.760;37.678;2023-02-08T01:18:21;12.87;;;4.43;;
74922;SDS011;64715;44.760;37.678;2023-02-08T01:19:22;9.85;;;3.38;;
74922;SDS011;64715;44.760;37.678;2023-02-08T01:20:23;14.65;;;4.63;;
74922;SDS011;64715;44.760;37.678;2023-02-08T01:21:26;10.35;;;3.97;;
74922;SDS011;64715;44.760;37.678;2023-02-08T01:22:33;12.52;;;4.05;;
74922;SDS011;64715;44.760;37.678;2023-02-08T01:23:34;13.13;;;4.50;;
74922;SDS011;64715;44.760;37.678;2023-02-08T01:24:36;17.25;;;4.72;;
74922;SDS011;64715;44.760;37.678;2023-02-08T01:25:37;13.40;;;4.82;;
74922;SDS011;64715;44.760;37.678;2023-02-08T01:26:39;14.30;;;5.37;;
74922;SDS011;64715;44.760;37.678;2023-02-08T01:27:40;14.57;;;5.03;;
74922;SDS011;64715;44.760;37.678;2023-02-08T01:28:58;10.20;;;3.60;;
74922;SDS011;64715;44.760;37.678;2023-02-08T01:30:00;13.98;;;3.80;;
74922;SDS011;64715;44.760;37.678;2023-02-08T01:31:05;14.02;;;4.72;;
74922;SDS011;64715;44.760;37.678;2023-02-08T01:32:07;13.88;;;4.28;;
74922;SDS011;64715;44.760;37.678;2023-02-08T01:35:49;12.77;;;5.47;;
74922;SDS011;64715;44.760;37.678;2023-02-08T01:36:51;12.75;;;3.72;;
74922;SDS011;64715;44.760;37.678;2023-02-08T01:37:52;12.27;;;4.57;;
74922;SDS011;64715;44.760;37.678;2023-02-08T01:38:53;16.08;;;4.95;;
74922;SDS011;64715;44.760;37.678;2023-02-08T01:39:58;11.73;;;3.55;;
74922;SDS011;64715;44.760;37.678;2023-02-08T01:42:49;13.57;;;5.20;;
74922;SDS011;64715;44.760;37.678;2023-02-08T01:44:07;12.07;;;5.17;;
74922;SDS011;64715;44.760;37.678;2023-02-08T01:45:18;10.02;;;3.42;;
74922;SDS011;64715;44.760;37.678;2023-02-08T01:46:23;11.88;;;3.88;;
74922;SDS011;64715;44.760;37.678;2023-02-08T01:49:35;14.43;;;5.65;;
74922;SDS011;64715;44.760;37.678;2023-02-08T01:50:41;14.82;;;4.43;;
74922;SDS011;64715;44.760;37.678;2023-02-08T01:51:50;21.67;;;5.65;;
74922;SDS011;64715;44.760;37.678;2023-02-08T01:53:05;19.60;;;6.28;;
74922;SDS011;64715;44.760;37.678;2023-02-08T01:54:07;15.23;;;5.17;;
74922;SDS011;64715;44.760;37.678;2023-02-08T01:58:04;16.13;;;6.07;;
74922;SDS011;64715;44.760;37.678;2023-02-08T02:03:59;15.32;;;4.95;;
74922;SDS011;64715;44.760;37.678;2023-02-08T02:05:01;14.63;;;4.50;;
74922;SDS011;64715;44.760;37.678;2023-02-08T02:08:18;15.00;;;4.45;;
74922;SDS011;64715;44.760;37.678;2023-02-08T02:11:07;12.73;;;5.30;;
74922;SDS011;64715;44.760;37.678;2023-02-08T02:13:35;21.90;;;5.18;;
74922;SDS011;64715;44.760;37.678;2023-02-08T02:14:38;12.80;;;3.75;;
74922;SDS011;64715;44.760;37.678;2023-02-08T02:15:41;14.25;;;4.47;;
74922;SDS011;64715;44.760;37.678;2023-02-08T02:43:25;16.92;;;5.25;;
74922;SDS011;64715;44.760;37.678;2023-02-08T02:46:27;17.85;;;5.63;;
74922;SDS011;64715;44.760;37.678;2023-02-08T02:47:53;16.67;;;5.55;;
74922;SDS011;64715;44.760;37.678;2023-02-08T02:49:23;16.73;;;4.97;;
74922;SDS011;64715;44.760;37.678;2023-02-08T02:51:42;13.25;;;4.68;;
74922;SDS011;64715;44.760;37.678;2023-02-08T02:54:31;18.17;;;6.30;;
74922;SDS011;64715;44.760;37.678;2023-02-08T02:55:41;20.53;;;5.63;;
74922;SDS011;64715;44.760;37.678;2023-02-08T02:56:47;19.17;;;4.78;;
74922;SDS011;64715;44.760;37.678;2023-02-08T03:00:28;13.57;;;4.70;;
74922;SDS011;64715;44.760;37.678;2023-02-08T03:01:32;15.80;;;5.10;;
74922;SDS011;64715;44.760;37.678;2023-02-08T03:05:14;18.60;;;5.90;;
74922;SDS011;64715;44.760;37.678;2023-02-08T03:11:13;13.52;;;5.07;;
74922;SDS011;64715;44.760;37.678;2023-02-08T03:15:21;13.65;;;4.45;;
74922;SDS011;64715;44.760;37.678;2023-02-08T03:16:38;19.50;;;5.35;;
74922;SDS011;64715;44.760;37.678;2023-02-08T03:19:32;15.40;;;4.18;;
74922;SDS011;64715;44.760;37.678;2023-02-08T03:20:40;24.27;;;8.45;;
74922;SDS011;64715;44.760;37.678;2023-02-08T03:21:57;19.55;;;6.50;;
74922;SDS011;64715;44.760;37.678;2023-02-08T03:24:54;19.45;;;5.95;;
74922;SDS011;64715;44.760;37.678;2023-02-08T03:26:14;20.95;;;7.03;;
74922;SDS011;64715;44.760;37.678;2023-02-08T03:30:28;16.95;;;6.25;;
74922;SDS011;64715;44.760;37.678;2023-02-08T03:31:45;15.13;;;4.88;;
74922;SDS011;64715;44.760;37.678;2023-02-08T03:33:22;18.48;;;6.97;;
74922;SDS011;64715;44.760;37.678;2023-02-08T03:34:30;21.17;;;7.97;;
74922;SDS011;64715;44.760;37.678;2023-02-08T03:35:40;14.60;;;5.18;;
74922;SDS011;64715;44.760;37.678;2023-02-08T03:36:52;19.53;;;6.33;;
74922;SDS011;64715;44.760;37.678;2023-02-08T03:38:04;17.58;;;6.38;;
74922;SDS011;64715;44.760;37.678;2023-02-08T03:39:11;18.80;;;5.95;;
74922;SDS011;64715;44.760;37.678;2023-02-08T03:41:22;19.17;;;6.88;;
74922;SDS011;64715;44.760;37.678;2023-02-08T03:42:28;14.73;;;4.50;;
74922;SDS011;64715;44.760;37.678;2023-02-08T03:49:42;16.52;;;6.10;;
74922;SDS011;64715;44.760;37.678;2023-02-08T03:50:46;15.67;;;5.43;;
74922;SDS011;64715;44.760;37.678;2023-02-08T03:51:50;17.08;;;7.20;;
74922;SDS011;64715;44.760;37.678;2023-02-08T03:52:53;16.42;;;5.13;;
74922;SDS011;64715;44.760;37.678;2023-02-08T03:53:56;19.30;;;7.10;;
74922;SDS011;64715;44.760;37.678;2023-02-08T03:55:02;17.85;;;5.55;;
74922;SDS011;64715;44.760;37.678;2023-02-08T03:58:45;18.63;;;6.65;;
74922;SDS011;64715;44.760;37.678;2023-02-08T04:00:01;19.27;;;6.43;;
74922;SDS011;64715;44.760;37.678;2023-02-08T04:01:16;13.25;;;4.03;;
74922;SDS011;64715;44.760;37.678;2023-02-08T04:04:44;15.43;;;4.07;;
74922;SDS011;64715;44.760;37.678;2023-02-08T04:05:48;14.20;;;4.22;;
74922;SDS011;64715;44.760;37.678;2023-02-08T04:06:49;18.35;;;6.00;;
74922;SDS011;64715;44.760;37.678;2023-02-08T04:07:50;18.20;;;5.80;;
74922;SDS011;64715;44.760;37.678;2023-02-08T04:08:52;17.63;;;5.32;;
74922;SDS011;64715;44.760;37.678;2023-02-08T04:09:53;18.35;;;5.80;;
74922;SDS011;64715;44.760;37.678;2023-02-08T04:10:54;20.27;;;7.10;;
74922;SDS011;64715;44.760;37.678;2023-02-08T04:11:55;22.20;;;7.78;;
74922;SDS011;64715;44.760;37.678;2023-02-08T04:14:22;20.63;;;7.63;;
74922;SDS011;64715;44.760;37.678;2023-02-08T04:20:15;23.85;;;6.75;;
74922;SDS011;64715;44.760;37.678;2023-02-08T04:21:16;16.83;;;5.80;;
74922;SDS011;64715;44.760;37.678;2023-02-08T04:22:17;21.27;;;6.85;;
74922;SDS011;64715;44.760;37.678;2023-02-08T04:23:18;12.50;;;4.17;;
74922;SDS011;64715;44.760;37.678;2023-02-08T04:24:19;19.48;;;5.53;;
74922;SDS011;64715;44.760;37.678;2023-02-08T04:27:01;18.23;;;6.55;;
74922;SDS011;64715;44.760;37.678;2023-02-08T04:28:02;15.90;;;4.95;;
74922;SDS011;64715;44.760;37.678;2023-02-08T04:30:29;21.20;;;6.03;;
74922;SDS011;64715;44.760;37.678;2023-02-08T04:31:30;20.08;;;6.50;;
74922;SDS011;64715;44.760;37.678;2023-02-08T04:32:31;17.40;;;5.82;;
74922;SDS011;64715;44.760;37.678;2023-02-08T04:33:32;17.15;;;5.70;;
74922;SDS011;64715;44.760;37.678;2023-02-08T04:34:33;20.35;;;5.53;;
74922;SDS011;64715;44.760;37.678;2023-02-08T04:35:34;18.05;;;7.25;;
74922;SDS011;64715;44.760;37.678;2023-02-08T04:36:35;20.17;;;5.85;;
74922;SDS011;64715;44.760;37.678;2023-02-08T04:37:36;20.75;;;6.32;;
74922;SDS011;64715;44.760;37.678;2023-02-08T04:40:39;26.50;;;9.95;;
74922;SDS011;64715;44.760;37.678;2023-02-08T04:41:40;21.52;;;7.93;;
74922;SDS011;64715;44.760;37.678;2023-02-08T04:42:41;22.47;;;5.70;;
74922;SDS011;64715;44.760;37.678;2023-02-08T04:45:03;18.58;;;6.75;;
74922;SDS011;64715;44.760;37.678;2023-02-08T04:46:05;20.55;;;7.63;;
74922;SDS011;64715;44.760;37.678;2023-02-08T04:47:06;16.17;;;5.43;;
74922;SDS011;64715;44.760;37.678;2023-02-08T04:48:06;18.65;;;7.18;;
74922;SDS011;64715;44.760;37.678;2023-02-08T04:49:09;14.17;;;4.33;;
74922;SDS011;64715;44.760;37.678;2023-02-08T04:50:10;17.88;;;6.32;;
74922;SDS011;64715;44.760;37.678;2023-02-08T04:51:10;15.40;;;5.72;;
74922;SDS011;64715;44.760;37.678;2023-02-08T04:52:12;16.48;;;5.88;;
74922;SDS011;64715;44.760;37.678;2023-02-08T04:53:13;16.45;;;4.75;;
74922;SDS011;64715;44.760;37.678;2023-02-08T04:54:14;18.23;;;5.53;;
74922;SDS011;64715;44.760;37.678;2023-02-08T04:55:15;16.75;;;5.80;;
74922;SDS011;64715;44.760;37.678;2023-02-08T04:56:16;13.25;;;4.47;;
74922;SDS011;64715;44.760;37.678;2023-02-08T04:57:17;16.05;;;5.68;;
74922;SDS011;64715;44.760;37.678;2023-02-08T04:58:18;20.02;;;6.13;;
74922;SDS011;64715;44.760;37.678;2023-02-08T04:59:19;16.17;;;5.57;;
74922;SDS011;64715;44.760;37.678;2023-02-08T05:00:20;18.77;;;6.43;;
74922;SDS011;64715;44.760;37.678;2023-02-08T05:01:21;16.75;;;5.22;;
74922;SDS011;64715;44.760;37.678;2023-02-08T05:02:22;18.08;;;6.13;;
74922;SDS011;64715;44.760;37.678;2023-02-08T05:03:23;18.50;;;6.47;;
74922;SDS011;64715;44.760;37.678;2023-02-08T05:04:24;13.13;;;4.50;;
74922;SDS011;64715;44.760;37.678;2023-02-08T05:05:25;18.10;;;6.10;;
74922;SDS011;64715;44.760;37.678;2023-02-08T05:06:27;16.55;;;4.28;;
74922;SDS011;64715;44.760;37.678;2023-02-08T05:07:28;16.23;;;6.20;;
74922;SDS011;64715;44.760;37.678;2023-02-08T05:08:29;16.30;;;6.00;;
74922;SDS011;64715;44.760;37.678;2023-02-08T05:09:30;15.18;;;6.05;;
74922;SDS011;64715;44.760;37.678;2023-02-08T05:10:32;16.77;;;5.47;;
74922;SDS011;64715;44.760;37.678;2023-02-08T05:11:33;19.48;;;6.05;;
74922;SDS011;64715;44.760;37.678;2023-02-08T05:12:34;17.80;;;6.72;;
74922;SDS011;64715;44.760;37.678;2023-02-08T05:13:35;18.65;;;6.70;;
74922;SDS011;64715;44.760;37.678;2023-02-08T05:14:36;17.47;;;6.93;;
74922;SDS011;64715;44.760;37.678;2023-02-08T05:15:37;14.95;;;4.65;;
74922;SDS011;64715;44.760;37.678;2023-02-08T05:16:38;15.32;;;5.25;;
74922;SDS011;64715;44.760;37.678;2023-02-08T05:17:39;15.38;;;5.28;;
74922;SDS011;64715;44.760;37.678;2023-02-08T05:18:40;18.55;;;6.10;;
74922;SDS011;64715;44.760;37.678;2023-02-08T05:19:41;12.55;;;4.40;;
74922;SDS011;64715;44.760;37.678;2023-02-08T05:20:42;17.13;;;5.70;;
74922;SDS011;64715;44.760;37.678;2023-02-08T05:21:44;13.15;;;4.05;;
74922;SDS011;64715;44.760;37.678;2023-02-08T05:22:45;14.20;;;4.68;;
74922;SDS011;64715;44.760;37.678;2023-02-08T05:23:46;13.90;;;4.57;;
74922;SDS011;64715;44.760;37.678;2023-02-08T05:24:47;13.57;;;4.45;;
74922;SDS011;64715;44.760;37.678;2023-02-08T05:25:48;14.15;;;4.70;;
74922;SDS011;64715;44.760;37.678;2023-02-08T05:26:49;19.53;;;6.47;;
74922;SDS011;64715;44.760;37.678;2023-02-08T05:27:50;15.57;;;5.18;;
74922;SDS011;64715;44.760;37.678;2023-02-08T05:28:51;17.77;;;7.03;;
74922;SDS011;64715;44.760;37.678;2023-02-08T05:29:52;14.30;;;5.10;;
74922;SDS011;64715;44.760;37.678;2023-02-08T05:33:38;12.23;;;4.47;;
74922;SDS011;64715;44.760;37.678;2023-02-08T05:38:58;14.90;;;4.82;;
74922;SDS011;64715;44.760;37.678;2023-02-08T05:42:02;34.47;;;6.40;;
74922;SDS011;64715;44.760;37.678;2023-02-08T05:43:03;16.20;;;6.43;;
74922;SDS011;64715;44.760;37.678;2023-02-08T05:44:04;15.68;;;5.95;;
74922;SDS011;64715;44.760;37.678;2023-02-08T05:45:05;21.48;;;5.90;;
74922;SDS011;64715;44.760;37.678;2023-02-08T05:46:06;15.93;;;5.80;;
74922;SDS011;64715;44.760;37.678;2023-02-08T05:47:08;17.48;;;6.57;;
74922;SDS011;64715;44.760;37.678;2023-02-08T05:48:09;15.88;;;6.32;;
74922;SDS011;64715;44.760;37.678;2023-02-08T05:49:10;15.90;;;4.85;;
74922;SDS011;64715;44.760;37.678;2023-02-08T05:52:45;17.60;;;7.20;;
74922;SDS011;64715;44.760;37.678;2023-02-08T05:53:46;18.67;;;6.18;;
74922;SDS011;64715;44.760;37.678;2023-02-08T05:54:47;12.13;;;4.70;;
74922;SDS011;64715;44.760;37.678;2023-02-08T05:55:48;16.85;;;6.45;;
74922;SDS011;64715;44.760;37.678;2023-02-08T05:56:49;18.17;;;6.85;;
74922;SDS011;64715;44.760;37.678;2023-02-08T05:57:50;14.77;;;5.70;;
74922;SDS011;64715;44.760;37.678;2023-02-08T06:01:16;15.25;;;6.18;;
74922;SDS011;64715;44.760;37.678;2023-02-08T06:04:43;15.55;;;4.38;;
74922;SDS011;64715;44.760;37.678;2023-02-08T06:08:31;19.38;;;6.22;;
74922;SDS011;64715;44.760;37.678;2023-02-08T06:09:33;17.08;;;5.22;;
74922;SDS011;64715;44.760;37.678;2023-02-08T06:12:49;14.57;;;4.80;;
74922;SDS011;64715;44.760;37.678;2023-02-08T06:16:31;12.80;;;4.70;;
74922;SDS011;64715;44.760;37.678;2023-02-08T06:17:32;20.40;;;8.00;;
74922;SDS011;64715;44.760;37.678;2023-02-08T06:18:33;14.18;;;4.72;;
74922;SDS011;64715;44.760;37.678;2023-02-08T06:22:16;24.17;;;6.82;;
74922;SDS011;64715;44.760;37.678;2023-02-08T06:23:17;13.45;;;4.90;;
74922;SDS011;64715;44.760;37.678;2023-02-08T06:24:18;18.58;;;5.78;;
74922;SDS011;64715;44.760;37.678;2023-02-08T06:25:19;17.00;;;6.22;;
74922;SDS011;64715;44.760;37.678;2023-02-08T06:29:00;14.15;;;5.07;;
74922;SDS011;64715;44.760;37.678;2023-02-08T06:32:57;15.63;;;5.03;;
74922;SDS011;64715;44.760;37.678;2023-02-08T06:33:58;18.58;;;7.00;;
74922;SDS011;64715;44.760;37.678;2023-02-08T06:34:59;13.02;;;3.97;;
74922;SDS011;64715;44.760;37.678;2023-02-08T06:36:00;14.10;;;4.50;;
74922;SDS011;64715;44.760;37.678;2023-02-08T06:37:11;16.02;;;5.47;;
74922;SDS011;64715;44.760;37.678;2023-02-08T06:38:13;20.45;;;7.63;;
74922;SDS011;64715;44.760;37.678;2023-02-08T06:39:14;17.48;;;6.65;;
74922;SDS011;64715;44.760;37.678;2023-02-08T06:40:15;13.80;;;5.18;;
74922;SDS011;64715;44.760;37.678;2023-02-08T06:41:16;17.38;;;5.68;;
74922;SDS011;64715;44.760;37.678;2023-02-08T06:42:17;14.43;;;5.43;;
74922;SDS011;64715;44.760;37.678;2023-02-08T06:43:19;18.05;;;6.97;;
74922;SDS011;64715;44.760;37.678;2023-02-08T06:44:19;22.88;;;7.65;;
74922;SDS011;64715;44.760;37.678;2023-02-08T06:45:23;13.77;;;4.80;;
74922;SDS011;64715;44.760;37.678;2023-02-08T06:46:26;16.58;;;5.47;;
74922;SDS011;64715;44.760;37.678;2023-02-08T06:47:27;15.77;;;5.53;;
74922;SDS011;64715;44.760;37.678;2023-02-08T06:48:28;16.60;;;5.87;;
74922;SDS011;64715;44.760;37.678;2023-02-08T06:49:29;14.23;;;4.78;;
74922;SDS011;64715;44.760;37.678;2023-02-08T06:50:30;16.50;;;5.50;;
74922;SDS011;64715;44.760;37.678;2023-02-08T06:53:39;16.33;;;5.47;;
74922;SDS011;64715;44.760;37.678;2023-02-08T06:54:39;18.70;;;6.88;;
74922;SDS011;64715;44.760;37.678;2023-02-08T06:55:41;14.23;;;5.50;;
74922;SDS011;64715;44.760;37.678;2023-02-08T06:56:42;19.33;;;6.40;;
74922;SDS011;64715;44.760;37.678;2023-02-08T06:57:44;17.15;;;6.63;;
74922;SDS011;64715;44.760;37.678;2023-02-08T06:58:45;17.37;;;5.67;;
74922;SDS011;64715;44.760;37.678;2023-02-08T06:59:46;12.85;;;4.53;;
74922;SDS011;64715;44.760;37.678;2023-02-08T07:00:47;14.43;;;4.88;;
74922;SDS011;64715;44.760;37.678;2023-02-08T07:01:48;17.40;;;5.93;;
74922;SDS011;64715;44.760;37.678;2023-02-08T07:02:50;21.27;;;7.13;;
74922;SDS011;64715;44.760;37.678;2023-02-08T07:03:51;24.55;;;8.15;;
74922;SDS011;64715;44.760;37.678;2023-02-08T07:07:20;19.55;;;7.93;;
74922;SDS011;64715;44.760;37.678;2023-02-08T07:08:22;25.05;;;6.82;;
74922;SDS011;64715;44.760;37.678;2023-02-08T07:09:22;17.73;;;6.55;;
74922;SDS011;64715;44.760;37.678;2023-02-08T07:10:23;15.43;;;5.50;;
74922;SDS011;64715;44.760;37.678;2023-02-08T07:11:25;18.42;;;6.90;;
74922;SDS011;64715;44.760;37.678;2023-02-08T07:12:26;15.77;;;5.38;;
74922;SDS011;64715;44.760;37.678;2023-02-08T07:13:27;22.30;;;8.60;;
74922;SDS011;64715;44.760;37.678;2023-02-08T07:30:42;19.90;;;8.55;;
74922;SDS011;64715;44.760;37.678;2023-02-08T07:31:44;17.20;;;6.20;;
74922;SDS011;64715;44.760;37.678;2023-02-08T07:32:46;16.80;;;6.70;;
74922;SDS011;64715;44.760;37.678;2023-02-08T07:33:47;18.20;;;7.27;;
74922;SDS011;64715;44.760;37.678;2023-02-08T07:34:48;20.58;;;7.72;;
74922;SDS011;64715;44.760;37.678;2023-02-08T07:35:49;24.45;;;10.30;;
74922;SDS011;64715;44.760;37.678;2023-02-08T07:36:51;24.52;;;7.97;;
74922;SDS011;64715;44.760;37.678;2023-02-08T07:37:52;20.17;;;7.07;;
74922;SDS011;64715;44.760;37.678;2023-02-08T07:38:53;18.40;;;6.72;;
74922;SDS011;64715;44.760;37.678;2023-02-08T07:39:54;18.70;;;7.43;;
74922;SDS011;64715;44.760;37.678;2023-02-08T07:40:59;18.83;;;7.33;;
74922;SDS011;64715;44.760;37.678;2023-02-08T07:42:01;20.58;;;8.05;;
74922;SDS011;64715;44.760;37.678;2023-02-08T07:43:08;17.80;;;7.07;;
74922;SDS011;64715;44.760;37.678;2023-02-08T07:44:17;21.33;;;6.55;;
74922;SDS011;64715;44.760;37.678;2023-02-08T07:45:18;20.85;;;7.00;;
74922;SDS011;64715;44.760;37.678;2023-02-08T07:46:20;16.77;;;5.65;;
74922;SDS011;64715;44.760;37.678;2023-02-08T07:47:21;21.17;;;7.07;;
74922;SDS011;64715;44.760;37.678;2023-02-08T07:48:22;20.08;;;7.75;;
74922;SDS011;64715;44.760;37.678;2023-02-08T07:49:23;20.63;;;7.27;;
74922;SDS011;64715;44.760;37.678;2023-02-08T07:50:24;21.13;;;6.38;;
74922;SDS011;64715;44.760;37.678;2023-02-08T07:51:25;20.88;;;9.48;;
74922;SDS011;64715;44.760;37.678;2023-02-08T07:52:26;20.35;;;7.60;;
74922;SDS011;64715;44.760;37.678;2023-02-08T07:53:27;20.95;;;8.05;;
74922;SDS011;64715;44.760;37.678;2023-02-08T07:54:28;31.20;;;9.68;;
74922;SDS011;64715;44.760;37.678;2023-02-08T07:55:29;20.73;;;7.75;;
74922;SDS011;64715;44.760;37.678;2023-02-08T07:56:30;22.57;;;8.87;;
74922;SDS011;64715;44.760;37.678;2023-02-08T07:57:31;25.13;;;8.82;;
74922;SDS011;64715;44.760;37.678;2023-02-08T07:58:32;17.70;;;6.97;;
74922;SDS011;64715;44.760;37.678;2023-02-08T07:59:33;18.25;;;7.57;;
74922;SDS011;64715;44.760;37.678;2023-02-08T08:00:36;22.95;;;8.38;;
74922;SDS011;64715;44.760;37.678;2023-02-08T08:01:37;18.23;;;6.38;;
74922;SDS011;64715;44.760;37.678;2023-02-08T08:02:38;15.07;;;4.78;;
74922;SDS011;64715;44.760;37.678;2023-02-08T08:03:39;18.58;;;8.00;;
74922;SDS011;64715;44.760;37.678;2023-02-08T08:04:40;16.80;;;6.80;;
74922;SDS011;64715;44.760;37.678;2023-02-08T08:05:41;18.20;;;6.70;;
74922;SDS011;64715;44.760;37.678;2023-02-08T08:06:43;18.88;;;7.63;;
74922;SDS011;64715;44.760;37.678;2023-02-08T08:07:45;20.80;;;7.78;;
74922;SDS011;64715;44.760;37.678;2023-02-08T08:08:47;19.70;;;7.28;;
74922;SDS011;64715;44.760;37.678;2023-02-08T08:09:48;23.80;;;8.27;;
74922;SDS011;64715;44.760;37.678;2023-02-08T08:10:49;19.23;;;7.57;;
74922;SDS011;64715;44.760;37.678;2023-02-08T08:12:00;21.27;;;8.02;;
74922;SDS011;64715;44.760;37.678;2023-02-08T08:13:03;19.15;;;7.50;;
74922;SDS011;64715;44.760;37.678;2023-02-08T08:14:13;19.75;;;7.93;;
74922;SDS011;64715;44.760;37.678;2023-02-08T08:15:17;25.98;;;9.77;;
74922;SDS011;64715;44.760;37.678;2023-02-08T08:16:18;22.90;;;9.18;;
74922;SDS011;64715;44.760;37.678;2023-02-08T08:17:19;22.17;;;7.05;;
74922;SDS011;64715;44.760;37.678;2023-02-08T08:18:23;32.28;;;9.55;;
74922;SDS011;64715;44.760;37.678;2023-02-08T08:19:24;19.17;;;7.70;;
74922;SDS011;64715;44.760;37.678;2023-02-08T08:20:33;20.43;;;9.17;;
74922;SDS011;64715;44.760;37.678;2023-02-08T08:21:35;21.17;;;9.65;;
74922;SDS011;64715;44.760;37.678;2023-02-08T08:22:45;23.33;;;8.57;;
74922;SDS011;64715;44.760;37.678;2023-02-08T08:23:47;23.20;;;9.13;;
74922;SDS011;64715;44.760;37.678;2023-02-08T08:24:48;21.85;;;7.75;;
74922;SDS011;64715;44.760;37.678;2023-02-08T08:25:49;21.70;;;8.38;;
74922;SDS011;64715;44.760;37.678;2023-02-08T08:26:53;23.15;;;10.80;;
74922;SDS011;64715;44.760;37.678;2023-02-08T08:27:56;21.13;;;9.07;;
74922;SDS011;64715;44.760;37.678;2023-02-08T08:29:03;26.15;;;9.38;;
74922;SDS011;64715;44.760;37.678;2023-02-08T08:30:16;20.00;;;7.63;;
74922;SDS011;64715;44.760;37.678;2023-02-08T08:31:23;25.47;;;8.10;;
74922;SDS011;64715;44.760;37.678;2023-02-08T08:39:18;21.08;;;8.50;;
74922;SDS011;64715;44.760;37.678;2023-02-08T08:46:31;22.42;;;8.32;;
74922;SDS011;64715;44.760;37.678;2023-02-08T08:48:21;21.08;;;7.95;;
74922;SDS011;64715;44.760;37.678;2023-02-08T08:53:00;41.53;;;10.20;;
74922;SDS011;64715;44.760;37.678;2023-02-08T08:54:01;18.48;;;6.20;;
74922;SDS011;64715;44.760;37.678;2023-02-08T08:55:04;15.00;;;5.88;;
74922;SDS011;64715;44.760;37.678;2023-02-08T08:56:06;25.02;;;7.93;;